Wilmot, South Dakota
Current Conditions -  °F | °C
As of 12:54 AM on Thursday 27 Nov 2014 (Local Time) from KVVV Reporting Station
Clear Clear  
Wind Chill: -20°   Ceiling: Unl
Heat Index: -6°   Visibility: 10mi
Dew Point: -9°   Wind: 7mph
Humidity: 84%   Direction: 330°NNW
Pressure: 30.53"   Gusts: NA
Location:  45.41°N, 96.86°W
Report Text: KVVV 270654Z AUTO 33006KT 10SM CLR M21/M23 A3053 RMK AO2
Loading
Personal Weather Stations






























Interactive Weather Map New forecast layout! Learn more

10-Day Weather Forecast

Advertisements
Track Severe Weather on mobile